createdAt,value
2022-08-17T00:23:24.763Z,34.95
2022-08-17T00:25:52.857Z,30.42
2022-08-17T00:28:20.937Z,31.60
2022-08-17T00:30:51.305Z,31.80
2022-08-17T00:33:27.548Z,31.50
2022-08-17T00:35:56.037Z,32.75
2022-08-17T00:38:24.600Z,33.92
2022-08-17T00:40:59.252Z,32.30
2022-08-17T00:43:34.406Z,31.65
2022-08-17T00:46:14.017Z,32.58
2022-08-17T00:48:42.175Z,32.55
2022-08-17T00:51:39.509Z,30.42
2022-08-17T00:54:20.249Z,31.88
2022-08-17T00:57:09.956Z,32.05
2022-08-17T01:00:16.259Z,30.48
2022-08-17T01:02:48.337Z,28.90
2022-08-17T01:05:20.607Z,28.92
2022-08-17T01:07:48.718Z,28.55
2022-08-17T01:10:58.840Z,28.92
2022-08-17T01:13:11.911Z,29.30
2022-08-17T01:15:49.334Z,28.98
2022-08-17T01:18:16.756Z,30.13
2022-08-17T01:20:54.185Z,30.55
2022-08-17T01:23:24.592Z,29.52
2022-08-17T01:26:03.037Z,32.50
2022-08-17T01:28:33.508Z,30.08
2022-08-17T01:31:20.382Z,29.85
2022-08-17T01:33:47.758Z,30.98
2022-08-17T01:36:14.996Z,29.45
2022-08-17T01:38:44.944Z,29.15
2022-08-17T01:41:14.986Z,28.40
2022-08-17T01:43:51.172Z,28.85
2022-08-17T01:46:27.247Z,30.70
2022-08-17T01:48:55.683Z,31.08
2022-08-17T01:51:23.274Z,31.27
2022-08-17T01:53:54.865Z,34.22
2022-08-17T01:56:24.226Z,31.98
2022-08-17T01:58:52.445Z,33.75
2022-08-17T02:01:24.491Z,36.20
2022-08-17T02:03:56.156Z,34.30
2022-08-17T02:06:52.511Z,33.80
2022-08-17T02:09:18.826Z,34.80
2022-08-17T02:11:50.726Z,32.72
2022-08-17T02:14:18.126Z,30.52
2022-08-17T02:16:46.182Z,32.10
2022-08-17T02:19:16.812Z,33.88
2022-08-17T02:21:48.196Z,32.78
2022-08-17T02:27:17.051Z,32.08
2022-08-17T02:29:44.524Z,32.70
2022-08-17T02:32:27.229Z,35.83
2022-08-17T02:34:54.972Z,34.40
2022-08-17T02:37:22.138Z,35.83
2022-08-17T02:39:49.203Z,34.22
2022-08-17T02:42:16.420Z,34.63
2022-08-17T02:44:43.739Z,35.90
2022-08-17T02:47:12.824Z,33.78
2022-08-17T02:49:39.859Z,33.33
2022-08-17T02:52:07.811Z,36.00
2022-08-17T02:54:40.775Z,37.25
2022-08-17T02:57:10.500Z,37.00
2022-08-17T02:59:39.613Z,36.45
2022-08-17T03:02:10.297Z,39.53
2022-08-17T03:04:37.702Z,39.30
2022-08-17T03:07:05.802Z,37.38
2022-08-17T03:09:36.100Z,38.63
2022-08-17T03:12:13.010Z,40.35
2022-08-17T03:14:43.392Z,40.80
2022-08-17T03:17:17.114Z,41.53
2022-08-17T03:19:44.862Z,41.47
2022-08-17T03:22:35.914Z,41.55
2022-08-17T03:24:59.146Z,41.80
2022-08-17T03:27:27.725Z,43.70
2022-08-17T03:29:55.307Z,42.63
2022-08-17T03:32:22.431Z,42.95
2022-08-17T03:34:49.501Z,44.10
2022-08-17T03:37:17.678Z,44.80
2022-08-17T03:39:47.638Z,43.85
2022-08-17T03:42:31.804Z,45.35
2022-08-17T03:45:03.786Z,43.85
2022-08-17T03:47:49.721Z,43.95
2022-08-17T03:50:38.542Z,47.72
2022-08-17T03:53:35.087Z,47.05
2022-08-17T03:56:24.453Z,46.53
2022-08-17T03:58:52.591Z,46.78
2022-08-17T04:01:19.845Z,46.50
2022-08-17T04:03:46.910Z,48.25
2022-08-17T04:06:16.650Z,46.30
2022-08-17T04:08:43.863Z,46.08
2022-08-17T04:11:15.248Z,47.30
2022-08-17T04:16:10.058Z,45.60
2022-08-17T04:18:37.292Z,46.80
2022-08-17T04:21:04.408Z,45.80
2022-08-17T04:23:35.044Z,44.78
2022-08-17T04:26:05.980Z,46.70
2022-08-17T04:28:34.155Z,45.28
2022-08-17T04:31:01.179Z,47.30
2022-08-17T04:33:30.123Z,44.15
2022-08-17T04:36:00.924Z,45.60
2022-08-17T04:38:36.642Z,47.03
2022-08-17T04:41:23.591Z,47.33
2022-08-17T04:43:55.148Z,46.03
2022-08-17T04:46:35.434Z,46.22
2022-08-17T04:49:10.362Z,46.42
2022-08-17T04:51:54.442Z,45.92
2022-08-17T04:54:23.512Z,44.15
2022-08-17T04:56:50.662Z,45.47
2022-08-17T04:59:21.485Z,43.60
2022-08-17T05:01:55.027Z,44.47
2022-08-17T05:04:34.137Z,44.25
2022-08-17T05:07:04.436Z,42.67
2022-08-17T05:09:31.866Z,43.38
2022-08-17T05:12:02.565Z,42.95
2022-08-17T05:14:33.606Z,40.47
2022-08-17T05:17:14.381Z,41.13
2022-08-17T05:19:41.909Z,40.55
2022-08-17T05:22:09.272Z,43.33
2022-08-17T05:24:42.633Z,41.47
2022-08-17T05:27:16.772Z,41.17
2022-08-17T05:29:51.347Z,40.38
2022-08-17T05:32:37.868Z,39.60
2022-08-17T05:35:11.241Z,38.50
2022-08-17T05:37:39.319Z,40.47
2022-08-17T05:40:10.569Z,38.47
2022-08-17T05:42:37.767Z,39.90
2022-08-17T05:45:05.968Z,44.53
2022-08-17T05:47:43.807Z,45.03
2022-08-17T05:50:27.015Z,44.53
2022-08-17T05:53:35.722Z,44.67
2022-08-17T05:56:34.342Z,44.13
2022-08-17T05:59:28.850Z,42.83
2022-08-17T06:02:03.200Z,44.92
2022-08-17T06:05:15.745Z,41.20
2022-08-17T06:08:18.028Z,38.80
2022-08-17T06:11:20.424Z,39.78
2022-08-17T06:14:25.953Z,36.75
2022-08-17T06:17:05.001Z,36.88
2022-08-17T06:19:48.415Z,34.22
2022-08-17T06:22:19.279Z,34.92
2022-08-17T06:24:54.353Z,34.92
2022-08-17T06:27:43.927Z,31.80
2022-08-17T06:30:26.099Z,33.70
2022-08-17T06:33:03.938Z,33.78
2022-08-17T06:35:57.557Z,35.47
2022-08-17T06:39:20.762Z,36.00
2022-08-17T06:43:02.111Z,36.60
2022-08-17T06:45:44.020Z,38.63
2022-08-17T06:48:25.148Z,38.38
2022-08-17T06:51:40.956Z,42.85
2022-08-17T06:54:45.936Z,40.22
2022-08-17T06:57:26.900Z,36.35
2022-08-17T07:00:13.812Z,30.75
2022-08-17T07:02:59.656Z,30.08
2022-08-17T07:05:52.440Z,31.73
2022-08-17T07:08:42.789Z,27.65
2022-08-17T07:11:27.772Z,26.33
2022-08-17T07:14:23.727Z,27.60
2022-08-17T07:16:58.742Z,27.85
2022-08-17T07:19:31.741Z,27.58
2022-08-17T07:22:55.230Z,27.73
2022-08-17T07:25:33.620Z,26.27
2022-08-17T07:28:07.071Z,24.10
2022-08-17T07:30:46.905Z,23.60
2022-08-17T07:33:21.478Z,22.88
2022-08-17T07:35:50.131Z,21.92
2022-08-17T07:38:26.971Z,22.25
2022-08-17T07:40:58.129Z,21.92
2022-08-17T07:43:39.271Z,21.48
2022-08-17T07:46:53.065Z,23.33
2022-08-17T08:11:15.653Z,18.83
2022-08-17T08:13:45.808Z,19.15
2022-08-17T08:16:29.746Z,19.90
2022-08-17T08:19:02.055Z,19.75
2022-08-17T08:21:54.951Z,20.70
2022-08-17T08:25:12.506Z,21.33
2022-08-17T08:28:10.354Z,21.15
2022-08-17T08:30:48.648Z,22.80
2022-08-17T08:33:44.808Z,23.52
2022-08-17T08:37:17.143Z,22.25
2022-08-17T08:40:13.266Z,19.33
2022-08-17T08:43:10.182Z,17.83
2022-08-17T08:45:58.420Z,20.15
2022-08-17T08:48:56.511Z,20.65
2022-08-17T08:51:46.757Z,21.67
2022-08-17T08:54:20.247Z,20.70
2022-08-17T08:57:44.527Z,22.90
2022-08-17T09:00:22.662Z,22.20
2022-08-17T09:03:11.257Z,22.00
2022-08-17T09:06:32.449Z,22.30
2022-08-17T09:09:25.640Z,24.42
2022-08-17T09:12:16.917Z,22.73
2022-08-17T09:15:12.973Z,22.55
2022-08-17T09:18:30.425Z,21.92
2022-08-17T09:21:04.282Z,21.13
2022-08-17T09:24:09.961Z,21.00
2022-08-17T09:26:49.067Z,22.25
2022-08-17T09:29:17.928Z,21.48
2022-08-17T09:32:05.374Z,22.67
2022-08-17T09:34:43.538Z,21.85
2022-08-17T09:37:49.462Z,23.02
2022-08-17T09:40:23.228Z,23.08
2022-08-17T09:43:35.163Z,22.92
2022-08-17T09:49:03.851Z,24.77
2022-08-17T09:52:14.809Z,26.98
2022-08-17T09:54:48.134Z,27.60
2022-08-17T09:58:05.191Z,27.95
2022-08-17T10:00:39.881Z,29.58
2022-08-17T10:03:49.043Z,29.95
2022-08-17T10:06:22.097Z,32.65
2022-08-17T10:09:14.560Z,34.13
2022-08-17T10:12:12.231Z,34.13
2022-08-17T10:15:13.469Z,34.20
2022-08-17T10:18:18.057Z,32.28
2022-08-17T10:21:20.028Z,33.78
2022-08-17T10:25:21.453Z,32.85
2022-08-17T10:27:49.204Z,34.45
2022-08-17T10:30:27.086Z,34.42
2022-08-17T10:33:05.123Z,34.10
2022-08-17T10:36:19.450Z,34.80
2022-08-17T10:38:50.171Z,36.70
2022-08-17T10:41:45.005Z,35.97
2022-08-17T10:44:41.387Z,32.58
2022-08-17T10:47:19.573Z,32.83
2022-08-17T10:49:54.281Z,33.50
2022-08-17T10:52:25.056Z,33.63
2022-08-17T10:54:58.546Z,35.38
2022-08-17T10:57:34.683Z,34.80
2022-08-17T11:00:26.987Z,36.58
2022-08-17T11:03:00.325Z,37.63
2022-08-17T11:08:45.108Z,39.85
2022-08-17T11:11:40.420Z,39.85
2022-08-17T11:14:53.044Z,41.63
2022-08-17T11:17:52.753Z,41.08
2022-08-17T11:20:52.871Z,40.90
2022-08-17T11:24:10.474Z,39.17
2022-08-17T11:26:39.090Z,40.42
2022-08-17T11:39:52.981Z,35.72
2022-08-17T11:42:36.558Z,33.45
2022-08-17T11:45:40.691Z,34.95
2022-08-17T11:48:55.866Z,33.27
2022-08-17T11:51:34.724Z,31.08
2022-08-17T11:57:29.441Z,29.58
2022-08-17T12:00:12.003Z,29.77
2022-08-17T12:02:48.080Z,29.83
2022-08-17T12:05:18.256Z,28.45
2022-08-17T12:08:11.198Z,27.98
2022-08-17T12:11:12.233Z,26.17
2022-08-17T12:13:48.749Z,28.52
2022-08-17T12:16:18.327Z,28.20
2022-08-17T12:19:02.935Z,27.20
2022-08-17T12:21:58.191Z,29.48
2022-08-17T12:25:10.894Z,28.05
2022-08-17T12:28:05.273Z,28.88
2022-08-17T12:30:39.397Z,28.63
2022-08-17T12:33:13.507Z,27.63
2022-08-17T12:36:05.120Z,27.95
2022-08-17T12:38:37.339Z,26.98
2022-08-17T12:41:28.898Z,28.25
2022-08-17T12:46:25.829Z,26.98
2022-08-17T12:48:59.315Z,27.58
2022-08-17T12:51:30.435Z,25.38
2022-08-17T12:54:00.344Z,26.95
2022-08-17T12:56:28.515Z,26.13
2022-08-17T12:58:56.599Z,26.17
2022-08-17T14:14:55.052Z,28.85
2022-08-17T14:17:23.215Z,26.52
2022-08-17T14:19:51.275Z,29.20
2022-08-17T14:42:32.788Z,33.00
2022-08-17T14:45:01.811Z,33.17
2022-08-17T14:47:28.837Z,31.90
2022-08-17T14:49:56.037Z,32.92
2022-08-17T14:52:23.399Z,31.65
2022-08-17T14:54:53.037Z,33.42
2022-08-17T14:57:33.638Z,33.45
2022-08-17T15:00:03.031Z,34.83
2022-08-17T15:02:31.298Z,36.67
2022-08-17T15:05:05.831Z,39.17
2022-08-17T15:07:33.240Z,40.92
2022-08-17T15:10:02.265Z,40.28
2022-08-17T15:12:36.837Z,41.05
2022-08-17T15:15:06.355Z,42.58
2022-08-17T15:17:43.853Z,42.97
2022-08-17T15:20:30.009Z,43.47
2022-08-17T15:22:59.626Z,44.20
2022-08-17T15:25:32.076Z,43.28
2022-08-17T15:28:00.167Z,45.20
2022-08-17T15:30:30.033Z,45.47
2022-08-17T15:32:59.479Z,45.78
2022-08-17T15:35:32.895Z,45.28
2022-08-17T15:38:11.726Z,43.80
2022-08-17T15:40:46.818Z,45.78
2022-08-17T15:43:27.116Z,45.42
2022-08-17T15:46:18.118Z,44.63
2022-08-17T15:48:49.945Z,41.13
2022-08-17T15:51:40.022Z,41.60
2022-08-17T15:54:18.588Z,39.60
2022-08-17T15:56:49.890Z,40.25
2022-08-17T15:59:16.931Z,41.97
2022-08-17T16:02:21.520Z,40.58
2022-08-17T16:04:31.782Z,40.13
2022-08-17T16:07:00.183Z,38.90
2022-08-17T16:09:27.922Z,37.72
2022-08-17T16:11:56.566Z,38.22
2022-08-17T16:14:33.895Z,37.25
2022-08-17T16:17:05.564Z,35.35
2022-08-17T16:19:56.504Z,37.42
2022-08-17T16:22:36.957Z,37.28
2022-08-17T16:25:18.404Z,36.50
2022-08-17T16:30:17.658Z,35.35
2022-08-17T16:35:17.304Z,34.63
2022-08-17T16:37:48.331Z,33.78
2022-08-17T16:40:17.715Z,32.28
2022-08-17T16:42:48.075Z,33.83
2022-08-17T16:45:19.318Z,32.67
2022-08-17T16:47:50.220Z,31.65
2022-08-17T16:50:21.641Z,31.33
2022-08-17T16:55:21.037Z,31.40
2022-08-17T16:57:50.382Z,30.80
2022-08-17T17:00:19.492Z,30.38
2022-08-17T17:02:49.538Z,30.98
2022-08-17T17:05:43.262Z,29.95
2022-08-17T17:08:33.750Z,30.75
2022-08-17T17:11:33.650Z,28.88
2022-08-17T17:14:10.660Z,28.75
2022-08-17T17:17:04.464Z,30.35
2022-08-17T17:19:41.478Z,28.65
2022-08-17T17:23:24.274Z,29.55
2022-08-17T17:26:15.409Z,27.73
2022-08-17T17:29:01.753Z,27.65
2022-08-17T17:31:38.577Z,28.33
2022-08-17T17:34:08.329Z,27.40
2022-08-17T17:36:45.912Z,27.38
2022-08-17T17:39:17.366Z,27.27
2022-08-17T17:44:35.305Z,25.65
2022-08-17T17:47:04.567Z,26.75
2022-08-17T17:49:37.227Z,25.95
2022-08-17T17:52:47.625Z,27.15
2022-08-17T17:55:26.288Z,26.15
2022-08-17T17:58:27.028Z,26.05
2022-08-17T18:01:39.527Z,24.52
2022-08-17T18:04:28.500Z,25.65
2022-08-17T18:07:05.521Z,26.00
2022-08-17T18:12:48.252Z,25.00
2022-08-17T18:15:52.764Z,26.00
2022-08-17T18:18:44.611Z,24.67
2022-08-17T18:21:27.790Z,25.45
2022-08-17T18:24:02.948Z,24.50
2022-08-17T18:26:55.483Z,25.95
2022-08-17T18:29:30.332Z,25.38
2022-08-17T18:32:25.825Z,25.95
2022-08-17T18:35:09.797Z,25.90
2022-08-17T18:37:46.690Z,23.48
2022-08-17T18:40:16.906Z,26.00
2022-08-17T18:42:50.503Z,26.20
2022-08-17T18:45:42.513Z,24.20
2022-08-17T18:48:30.141Z,24.27
2022-08-17T18:51:26.486Z,26.60
2022-08-17T18:54:21.842Z,24.90
2022-08-17T18:56:55.062Z,24.48
2022-08-17T18:59:45.044Z,23.38
2022-08-17T19:02:45.234Z,22.35
2022-08-17T19:05:13.755Z,24.05
2022-08-17T19:07:46.762Z,23.63
2022-08-17T19:10:28.982Z,24.98
2022-08-17T19:13:24.410Z,23.40
2022-08-17T19:16:27.923Z,23.17
2022-08-17T19:19:30.296Z,23.70
2022-08-17T19:22:28.789Z,23.35
2022-08-17T19:25:11.891Z,22.15
2022-08-17T19:27:51.318Z,21.75
2022-08-17T19:30:24.744Z,20.38
2022-08-17T19:32:53.229Z,21.92
2022-08-17T19:35:22.322Z,20.42
2022-08-17T19:38:03.120Z,20.02
2022-08-17T19:40:52.839Z,20.10
2022-08-17T19:43:37.147Z,19.25
2022-08-17T19:46:35.993Z,20.70
2022-08-17T19:49:47.319Z,19.75
2022-08-17T19:52:56.849Z,18.75
2022-08-17T19:56:15.699Z,18.92
2022-08-17T19:59:04.045Z,19.13
2022-08-17T20:01:53.229Z,18.45
2022-08-17T20:04:32.324Z,18.17
2022-08-17T20:07:08.545Z,18.13
2022-08-17T20:09:44.427Z,17.40
2022-08-17T20:12:16.883Z,17.05
2022-08-17T20:15:00.402Z,17.15
2022-08-17T20:17:41.895Z,16.10
2022-08-17T20:23:15.090Z,16.23
2022-08-17T20:26:18.948Z,15.80
2022-08-17T20:29:14.791Z,15.80
2022-08-17T20:31:52.011Z,15.77
2022-08-17T20:34:39.903Z,15.45
2022-08-17T20:37:29.032Z,15.30
2022-08-17T20:39:57.252Z,15.25
2022-08-17T20:42:24.443Z,14.70
2022-08-17T20:44:58.529Z,15.13
2022-08-17T20:47:33.749Z,14.77
2022-08-17T20:50:28.896Z,14.43
2022-08-17T20:53:00.368Z,14.10
2022-08-17T20:55:51.982Z,15.05
2022-08-17T20:58:46.605Z,15.07
2022-08-17T21:01:20.478Z,13.68
2022-08-17T21:03:59.032Z,13.45
2022-08-17T21:06:28.808Z,14.40
2022-08-17T21:09:12.755Z,13.10
2022-08-17T21:12:03.461Z,13.27
2022-08-17T21:15:04.314Z,12.48
2022-08-17T21:18:13.179Z,12.48
2022-08-17T21:21:41.274Z,12.75
2022-08-17T21:24:21.760Z,11.65
2022-08-17T21:27:44.575Z,12.82
2022-08-17T21:30:28.362Z,13.10
2022-08-17T21:33:20.593Z,13.55
2022-08-17T21:38:21.977Z,11.93
2022-08-17T21:40:53.076Z,12.45
2022-08-17T21:43:24.888Z,12.77
2022-08-17T21:45:59.342Z,12.20
2022-08-17T21:48:29.463Z,12.18
2022-08-17T21:51:13.893Z,12.13
2022-08-17T21:53:53.177Z,12.55
2022-08-17T21:56:36.723Z,11.82
2022-08-17T21:59:08.816Z,11.05
2022-08-17T22:01:40.248Z,10.82
2022-08-17T22:06:56.509Z,10.25
2022-08-17T22:09:34.213Z,10.25
2022-08-17T22:12:07.598Z,11.38
2022-08-17T22:14:52.553Z,10.73
2022-08-17T22:17:46.520Z,11.45
2022-08-17T22:20:20.917Z,11.25
2022-08-17T22:23:13.661Z,11.93
2022-08-17T22:26:00.217Z,11.38
2022-08-17T22:28:40.590Z,10.75
2022-08-17T22:31:10.541Z,12.32
2022-08-17T22:33:48.094Z,10.93
2022-08-17T22:36:21.986Z,10.88
2022-08-17T22:38:58.755Z,11.70
2022-08-17T22:41:43.543Z,11.50
2022-08-17T22:44:19.815Z,11.48
2022-08-17T22:47:02.324Z,11.05
2022-08-17T22:49:53.487Z,11.98
2022-08-17T22:53:01.783Z,11.15
2022-08-17T22:55:52.822Z,10.95
2022-08-17T22:58:42.431Z,11.50
2022-08-17T23:01:33.442Z,10.77
2022-08-17T23:04:07.996Z,11.70
2022-08-17T23:06:37.249Z,11.55
2022-08-17T23:09:06.834Z,11.40
2022-08-17T23:11:48.920Z,10.68
2022-08-17T23:14:19.298Z,12.60
2022-08-17T23:16:50.513Z,12.00
2022-08-17T23:19:20.695Z,12.45
2022-08-17T23:21:48.747Z,11.93
2022-08-17T23:24:28.817Z,12.40
2022-08-17T23:26:58.291Z,12.40
2022-08-17T23:29:29.729Z,12.65
2022-08-17T23:34:25.746Z,10.95
2022-08-17T23:36:53.373Z,11.65
2022-08-17T23:39:27.959Z,11.57
2022-08-17T23:41:57.926Z,11.13
2022-08-17T23:44:25.131Z,11.65
2022-08-17T23:46:53.058Z,12.13
2022-08-17T23:49:20.484Z,12.00
2022-08-17T23:51:48.724Z,11.55
2022-08-17T23:54:33.784Z,10.77
2022-08-17T23:57:02.347Z,10.80
2022-08-17T23:59:29.503Z,10.65
